<?xml version="1.0" encoding="UTF-8" standalone="no" ?>
<gpx xmlns="http://www.topografix.com/GPX/1/1" xmlns:xsi="http://www.w3.org/2001/XMLSchema-instance" xsi:schemaLocation="http://www.topografix.com/GPX/1/1 http://www.topografix.com/GPX/1/1/gpx.xsd" version="1.1" creator="VisuGPX - https://www.visugpx.com">
  <metadata>
    <name>parcours 13</name>
    <desc><![CDATA[l'entrainement continu]]></desc>
  </metadata>
  <trk>
    <name><![CDATA[ACTIVE LOG141111]]></name>
    <trkseg>
      <trkpt lat="48.548" lon="-4.73742">
        <ele>19.577</ele>
        <time>2010-08-16T12:11:10Z</time>
      </trkpt>
      <trkpt lat="48.54809" lon="-4.73725">
        <ele>74.659</ele>
        <time>2010-08-16T12:11:12Z</time>
      </trkpt>
      <trkpt lat="48.54839" lon="-4.73665">
        <ele>70.23</ele>
        <time>2010-08-16T12:11:19Z</time>
      </trkpt>
      <trkpt lat="48.54844" lon="-4.73656">
        <ele>70.135</ele>
        <time>2010-08-16T12:11:20Z</time>
      </trkpt>
      <trkpt lat="48.54853" lon="-4.73638">
        <ele>66.864</ele>
        <time>2010-08-16T12:11:22Z</time>
      </trkpt>
      <trkpt lat="48.54862" lon="-4.73619">
        <ele>63.121</ele>
        <time>2010-08-16T12:11:24Z</time>
      </trkpt>
      <trkpt lat="48.54868" lon="-4.73597">
        <ele>59.466</ele>
        <time>2010-08-16T12:11:26Z</time>
      </trkpt>
      <trkpt lat="48.54878" lon="-4.73559">
        <ele>52.288</ele>
        <time>2010-08-16T12:11:29Z</time>
      </trkpt>
      <trkpt lat="48.54888" lon="-4.73518">
        <ele>48.605</ele>
        <time>2010-08-16T12:11:32Z</time>
      </trkpt>
      <trkpt lat="48.54912" lon="-4.73467">
        <ele>44.568</ele>
        <time>2010-08-16T12:11:37Z</time>
      </trkpt>
      <trkpt lat="48.54924" lon="-4.73456">
        <ele>43.602</ele>
        <time>2010-08-16T12:11:39Z</time>
      </trkpt>
      <trkpt lat="48.54944" lon="-4.73444">
        <ele>42.035</ele>
        <time>2010-08-16T12:11:42Z</time>
      </trkpt>
      <trkpt lat="48.54951" lon="-4.7344">
        <ele>38.852</ele>
        <time>2010-08-16T12:11:43Z</time>
      </trkpt>
      <trkpt lat="48.54974" lon="-4.73427">
        <ele>35.117</ele>
        <time>2010-08-16T12:11:46Z</time>
      </trkpt>
      <trkpt lat="48.54999" lon="-4.73415">
        <ele>31.25</ele>
        <time>2010-08-16T12:11:49Z</time>
      </trkpt>
      <trkpt lat="48.55008" lon="-4.73411">
        <ele>30.948</ele>
        <time>2010-08-16T12:11:50Z</time>
      </trkpt>
      <trkpt lat="48.55041" lon="-4.73395">
        <ele>28.345</ele>
        <time>2010-08-16T12:11:54Z</time>
      </trkpt>
      <trkpt lat="48.55091" lon="-4.73371">
        <ele>25.037</ele>
        <time>2010-08-16T12:12:00Z</time>
      </trkpt>
      <trkpt lat="48.55128" lon="-4.73353">
        <ele>21.735</ele>
        <time>2010-08-16T12:12:04Z</time>
      </trkpt>
      <trkpt lat="48.55177" lon="-4.7333">
        <ele>17.73</ele>
        <time>2010-08-16T12:12:09Z</time>
      </trkpt>
      <trkpt lat="48.55314" lon="-4.73233">
        <ele>19.065</ele>
        <time>2010-08-16T12:12:25Z</time>
      </trkpt>
      <trkpt lat="48.55425" lon="-4.7313">
        <ele>16.382</ele>
        <time>2010-08-16T12:12:41Z</time>
      </trkpt>
      <trkpt lat="48.55546" lon="-4.73013">
        <ele>14.863</ele>
        <time>2010-08-16T12:13:00Z</time>
      </trkpt>
      <trkpt lat="48.5561" lon="-4.72865">
        <ele>15.51</ele>
        <time>2010-08-16T12:13:16Z</time>
      </trkpt>
      <trkpt lat="48.55658" lon="-4.72694">
        <ele>15.463</ele>
        <time>2010-08-16T12:13:33Z</time>
      </trkpt>
      <trkpt lat="48.55718" lon="-4.72468">
        <ele>12.684</ele>
        <time>2010-08-16T12:13:53Z</time>
      </trkpt>
      <trkpt lat="48.55765" lon="-4.72296">
        <ele>14.551</ele>
        <time>2010-08-16T12:14:10Z</time>
      </trkpt>
      <trkpt lat="48.55779" lon="-4.72242">
        <ele>16.851</ele>
        <time>2010-08-16T12:14:16Z</time>
      </trkpt>
      <trkpt lat="48.55785" lon="-4.72221">
        <ele>17.227</ele>
        <time>2010-08-16T12:14:19Z</time>
      </trkpt>
      <trkpt lat="48.55791" lon="-4.72094">
        <ele>17.434</ele>
        <time>2010-08-16T12:14:36Z</time>
      </trkpt>
      <trkpt lat="48.55788" lon="-4.72065">
        <ele>17.49</ele>
        <time>2010-08-16T12:14:43Z</time>
      </trkpt>
      <trkpt lat="48.55788" lon="-4.72066">
        <ele>16.999</ele>
        <time>2010-08-16T12:14:49Z</time>
      </trkpt>
      <trkpt lat="48.5576" lon="-4.7203">
        <ele>17.025</ele>
        <time>2010-08-16T12:14:53Z</time>
      </trkpt>
    </trkseg>
  </trk>
</gpx>